Terminal Aerodrome Forecast
Issued by NWS Bismarck, ND

Home | Current Version | Previous Version | Text Only | Print | Product List | Glossary Off
Versions: 1 2 3 4 5 6 7 8 9 10 11 12 13 14 15 16

000
FTUS43 KBIS 251500 AAA
TAFISN
TAF AMD
KISN 251544Z 2516/2612 13013KT P6SM OVC015
     FM251800 14015KT P6SM OVC020
     FM260200 18007KT 4SM -SHRA OVC015
     FM260600 VRB05KT P6SM OVC015=

USA.gov is the U.S. government's official web portal to all federal, state and local government web resources and services.